sensor_id;sensor_type;location;lat;lon;timestamp;pressure;altitude;pressure_sealevel;temperature
53667;BMP280;39568;51.026;5.468;2022-12-18T00:01:58;101838.72;;;-8.16
53667;BMP280;39568;51.026;5.468;2022-12-18T00:04:26;101847.19;;;-8.27
53667;BMP280;39568;51.026;5.468;2022-12-18T00:06:54;101847.13;;;-8.60
53667;BMP280;39568;51.026;5.468;2022-12-18T00:09:21;101842.56;;;-8.76
53667;BMP280;39568;51.026;5.468;2022-12-18T00:11:48;101850.84;;;-8.70
53667;BMP280;39568;51.026;5.468;2022-12-18T00:14:14;101845.44;;;-8.77
53667;BMP280;39568;51.026;5.468;2022-12-18T00:16:43;101840.03;;;-8.84
53667;BMP280;39568;51.026;5.468;2022-12-18T00:19:11;101827.69;;;-8.99
53667;BMP280;39568;51.026;5.468;2022-12-18T00:21:38;101828.78;;;-9.09
53667;BMP280;39568;51.026;5.468;2022-12-18T00:24:06;101826.34;;;-9.26
53667;BMP280;39568;51.026;5.468;2022-12-18T00:26:34;101829.38;;;-9.33
53667;BMP280;39568;51.026;5.468;2022-12-18T00:29:03;101819.22;;;-9.38
53667;BMP280;39568;51.026;5.468;2022-12-18T00:31:31;101835.19;;;-9.44
53667;BMP280;39568;51.026;5.468;2022-12-18T00:33:58;101819.31;;;-9.55
53667;BMP280;39568;51.026;5.468;2022-12-18T00:36:27;101812.66;;;-9.65
53667;BMP280;39568;51.026;5.468;2022-12-18T00:38:55;101813.16;;;-9.71
53667;BMP280;39568;51.026;5.468;2022-12-18T00:41:24;101825.31;;;-9.80
53667;BMP280;39568;51.026;5.468;2022-12-18T00:44:10;101817.41;;;-9.84
53667;BMP280;39568;51.026;5.468;2022-12-18T00:46:38;101823.03;;;-9.82
53667;BMP280;39568;51.026;5.468;2022-12-18T00:49:05;101816.06;;;-9.90
53667;BMP280;39568;51.026;5.468;2022-12-18T00:51:31;101816.06;;;-9.90
53667;BMP280;39568;51.026;5.468;2022-12-18T00:53:58;101812.28;;;-9.93
53667;BMP280;39568;51.026;5.468;2022-12-18T00:56:26;101805.31;;;-9.92
53667;BMP280;39568;51.026;5.468;2022-12-18T00:58:53;101810.66;;;-9.97
53667;BMP280;39568;51.026;5.468;2022-12-18T01:01:20;101808.50;;;-9.78
53667;BMP280;39568;51.026;5.468;2022-12-18T01:03:46;101809.56;;;-9.49
53667;BMP280;39568;51.026;5.468;2022-12-18T01:06:14;101802.28;;;-9.47
53667;BMP280;39568;51.026;5.468;2022-12-18T01:08:41;101798.28;;;-9.66
53667;BMP280;39568;51.026;5.468;2022-12-18T01:11:09;101787.88;;;-9.78
53667;BMP280;39568;51.026;5.468;2022-12-18T01:13:38;101784.56;;;-9.87
53667;BMP280;39568;51.026;5.468;2022-12-18T01:16:06;101786.25;;;-10.00
53667;BMP280;39568;51.026;5.468;2022-12-18T01:18:32;101791.28;;;-10.03
53667;BMP280;39568;51.026;5.468;2022-12-18T01:20:59;101794.75;;;-10.08
53667;BMP280;39568;51.026;5.468;2022-12-18T01:23:26;101803.84;;;-10.10
53667;BMP280;39568;51.026;5.468;2022-12-18T01:25:52;101798.88;;;-10.15
53667;BMP280;39568;51.026;5.468;2022-12-18T01:28:19;101807.34;;;-10.15
53667;BMP280;39568;51.026;5.468;2022-12-18T01:30:47;101807.50;;;-10.20
53667;BMP280;39568;51.026;5.468;2022-12-18T01:33:14;101808.25;;;-10.19
53667;BMP280;39568;51.026;5.468;2022-12-18T01:35:41;101815.97;;;-10.19
53667;BMP280;39568;51.026;5.468;2022-12-18T01:38:08;101808.56;;;-10.21
53667;BMP280;39568;51.026;5.468;2022-12-18T01:40:35;101801.00;;;-10.17
53667;BMP280;39568;51.026;5.468;2022-12-18T01:43:02;101796.28;;;-10.24
53667;BMP280;39568;51.026;5.468;2022-12-18T01:45:29;101804.63;;;-10.18
53667;BMP280;39568;51.026;5.468;2022-12-18T01:47:59;101801.63;;;-10.20
53667;BMP280;39568;51.026;5.468;2022-12-18T01:50:30;101797.81;;;-10.23
53667;BMP280;39568;51.026;5.468;2022-12-18T01:52:59;101796.28;;;-10.24
53667;BMP280;39568;51.026;5.468;2022-12-18T01:55:28;101793.59;;;-10.36
53667;BMP280;39568;51.026;5.468;2022-12-18T01:57:58;101801.91;;;-10.31
53667;BMP280;39568;51.026;5.468;2022-12-18T02:00:26;101802.19;;;-10.32
53667;BMP280;39568;51.026;5.468;2022-12-18T02:02:53;101803.84;;;-10.27
53667;BMP280;39568;51.026;5.468;2022-12-18T02:05:29;101807.34;;;-10.23
53667;BMP280;39568;51.026;5.468;2022-12-18T02:08:07;101796.59;;;-10.25
53667;BMP280;39568;51.026;5.468;2022-12-18T02:10:41;101790.84;;;-10.22
53667;BMP280;39568;51.026;5.468;2022-12-18T02:13:13;101790.41;;;-10.24
53667;BMP280;39568;51.026;5.468;2022-12-18T02:15:46;101792.69;;;-10.23
53667;BMP280;39568;51.026;5.468;2022-12-18T02:18:18;101791.31;;;-10.20
53667;BMP280;39568;51.026;5.468;2022-12-18T02:20:49;101789.59;;;-10.16
53667;BMP280;39568;51.026;5.468;2022-12-18T02:23:29;101796.13;;;-10.10
53667;BMP280;39568;51.026;5.468;2022-12-18T02:26:09;101790.69;;;-10.09
53667;BMP280;39568;51.026;5.468;2022-12-18T02:28:42;101781.13;;;-10.08
53667;BMP280;39568;51.026;5.468;2022-12-18T02:31:18;101781.31;;;-10.05
53667;BMP280;39568;51.026;5.468;2022-12-18T02:33:49;101774.00;;;-9.94
53667;BMP280;39568;51.026;5.468;2022-12-18T02:36:18;101782.78;;;-9.95
53667;BMP280;39568;51.026;5.468;2022-12-18T02:38:46;101769.72;;;-9.90
53667;BMP280;39568;51.026;5.468;2022-12-18T02:41:16;101765.03;;;-9.88
53667;BMP280;39568;51.026;5.468;2022-12-18T02:43:47;101770.78;;;-9.91
53667;BMP280;39568;51.026;5.468;2022-12-18T02:46:30;101760.06;;;-9.93
53667;BMP280;39568;51.026;5.468;2022-12-18T02:49:03;101758.22;;;-9.93
53667;BMP280;39568;51.026;5.468;2022-12-18T02:51:39;101756.28;;;-9.96
53667;BMP280;39568;51.026;5.468;2022-12-18T02:54:12;101748.69;;;-9.92
53667;BMP280;39568;51.026;5.468;2022-12-18T02:56:46;101757.31;;;-9.88
53667;BMP280;39568;51.026;5.468;2022-12-18T02:59:19;101755.94;;;-9.85
53667;BMP280;39568;51.026;5.468;2022-12-18T03:01:51;101750.31;;;-9.79
53667;BMP280;39568;51.026;5.468;2022-12-18T03:04:26;101737.25;;;-9.74
53667;BMP280;39568;51.026;5.468;2022-12-18T03:06:55;101737.25;;;-9.74
53667;BMP280;39568;51.026;5.468;2022-12-18T03:09:29;101736.78;;;-9.67
53667;BMP280;39568;51.026;5.468;2022-12-18T03:12:04;101731.00;;;-9.64
53667;BMP280;39568;51.026;5.468;2022-12-18T03:14:53;101724.03;;;-9.64
53667;BMP280;39568;51.026;5.468;2022-12-18T03:17:23;101730.34;;;-9.53
53667;BMP280;39568;51.026;5.468;2022-12-18T03:19:52;101727.22;;;-9.37
53667;BMP280;39568;51.026;5.468;2022-12-18T03:22:22;101733.25;;;-9.33
53667;BMP280;39568;51.026;5.468;2022-12-18T03:24:50;101726.94;;;-9.36
53667;BMP280;39568;51.026;5.468;2022-12-18T03:27:20;101720.38;;;-9.33
53667;BMP280;39568;51.026;5.468;2022-12-18T03:29:51;101716.66;;;-9.44
53667;BMP280;39568;51.026;5.468;2022-12-18T03:32:24;101737.88;;;-9.47
53667;BMP280;39568;51.026;5.468;2022-12-18T03:34:55;101744.47;;;-9.38
53667;BMP280;39568;51.026;5.468;2022-12-18T03:37:24;101739.34;;;-9.38
53667;BMP280;39568;51.026;5.468;2022-12-18T03:39:51;101730.88;;;-9.38
53667;BMP280;39568;51.026;5.468;2022-12-18T03:42:25;101740.09;;;-9.37
53667;BMP280;39568;51.026;5.468;2022-12-18T03:44:56;101733.00;;;-9.40
53667;BMP280;39568;51.026;5.468;2022-12-18T03:47:27;101727.69;;;-9.35
53667;BMP280;39568;51.026;5.468;2022-12-18T03:49:57;101728.91;;;-9.41
53667;BMP280;39568;51.026;5.468;2022-12-18T03:52:27;101711.31;;;-9.39
53667;BMP280;39568;51.026;5.468;2022-12-18T03:54:55;101702.94;;;-9.36
53667;BMP280;39568;51.026;5.468;2022-12-18T03:57:26;101711.38;;;-9.27
53667;BMP280;39568;51.026;5.468;2022-12-18T03:59:56;101709.97;;;-9.16
53667;BMP280;39568;51.026;5.468;2022-12-18T04:02:25;101706.84;;;-9.09
53667;BMP280;39568;51.026;5.468;2022-12-18T04:04:53;101699.00;;;-9.13
53667;BMP280;39568;51.026;5.468;2022-12-18T04:07:22;101702.44;;;-9.09
53667;BMP280;39568;51.026;5.468;2022-12-18T04:09:51;101704.16;;;-9.13
53667;BMP280;39568;51.026;5.468;2022-12-18T04:12:19;101706.09;;;-9.10
53667;BMP280;39568;51.026;5.468;2022-12-18T04:14:47;101705.94;;;-9.05
53667;BMP280;39568;51.026;5.468;2022-12-18T04:17:14;101709.38;;;-9.01
53667;BMP280;39568;51.026;5.468;2022-12-18T04:19:41;101713.28;;;-8.95
53667;BMP280;39568;51.026;5.468;2022-12-18T04:22:09;101711.19;;;-9.01
53667;BMP280;39568;51.026;5.468;2022-12-18T04:24:37;101709.38;;;-9.01
53667;BMP280;39568;51.026;5.468;2022-12-18T04:27:06;101714.16;;;-8.91
53667;BMP280;39568;51.026;5.468;2022-12-18T04:29:32;101720.75;;;-9.02
53667;BMP280;39568;51.026;5.468;2022-12-18T04:32:00;101724.44;;;-9.03
53667;BMP280;39568;51.026;5.468;2022-12-18T04:34:27;101726.72;;;-9.10
53667;BMP280;39568;51.026;5.468;2022-12-18T04:36:54;101730.19;;;-9.06
53667;BMP280;39568;51.026;5.468;2022-12-18T04:39:20;101734.09;;;-9.00
53667;BMP280;39568;51.026;5.468;2022-12-18T04:41:47;101729.13;;;-9.05
53667;BMP280;39568;51.026;5.468;2022-12-18T04:44:14;101729.59;;;-9.03
53667;BMP280;39568;51.026;5.468;2022-12-18T04:46:41;101710.59;;;-9.19
53667;BMP280;39568;51.026;5.468;2022-12-18T04:49:09;101709.81;;;-9.20
53667;BMP280;39568;51.026;5.468;2022-12-18T04:51:36;101704.66;;;-9.20
53667;BMP280;39568;51.026;5.468;2022-12-18T04:54:03;101714.63;;;-9.18
53667;BMP280;39568;51.026;5.468;2022-12-18T04:56:31;101713.34;;;-9.24
53667;BMP280;39568;51.026;5.468;2022-12-18T04:58:58;101706.22;;;-9.27
53667;BMP280;39568;51.026;5.468;2022-12-18T05:01:24;101710.97;;;-9.38
53667;BMP280;39568;51.026;5.468;2022-12-18T05:03:51;101708.28;;;-9.41
53667;BMP280;39568;51.026;5.468;2022-12-18T05:06:19;101711.06;;;-9.46
53667;BMP280;39568;51.026;5.468;2022-12-18T05:08:46;101714.25;;;-9.49
53667;BMP280;39568;51.026;5.468;2022-12-18T05:11:14;101715.06;;;-9.58
53667;BMP280;39568;51.026;5.468;2022-12-18T05:13:42;101710.09;;;-9.63
53667;BMP280;39568;51.026;5.468;2022-12-18T05:16:09;101706.00;;;-9.64
53667;BMP280;39568;51.026;5.468;2022-12-18T05:18:36;101710.25;;;-9.68
53667;BMP280;39568;51.026;5.468;2022-12-18T05:21:04;101716.06;;;-9.71
53667;BMP280;39568;51.026;5.468;2022-12-18T05:23:32;101712.56;;;-9.75
53667;BMP280;39568;51.026;5.468;2022-12-18T05:26:00;101712.44;;;-9.78
53667;BMP280;39568;51.026;5.468;2022-12-18T05:28:29;101711.84;;;-9.84
53667;BMP280;39568;51.026;5.468;2022-12-18T05:30:58;101721.09;;;-9.83
53667;BMP280;39568;51.026;5.468;2022-12-18T05:33:28;101725.19;;;-9.82
53667;BMP280;39568;51.026;5.468;2022-12-18T05:35:56;101719.91;;;-9.85
53667;BMP280;39568;51.026;5.468;2022-12-18T05:38:25;101719.16;;;-9.86
53667;BMP280;39568;51.026;5.468;2022-12-18T05:40:54;101725.63;;;-9.80
53667;BMP280;39568;51.026;5.468;2022-12-18T05:43:22;101724.56;;;-9.79
53667;BMP280;39568;51.026;5.468;2022-12-18T05:45:50;101720.88;;;-9.69
53667;BMP280;39568;51.026;5.468;2022-12-18T05:48:17;101718.94;;;-9.72
53667;BMP280;39568;51.026;5.468;2022-12-18T05:50:45;101717.56;;;-9.70
53667;BMP280;39568;51.026;5.468;2022-12-18T05:53:13;101716.66;;;-9.74
53667;BMP280;39568;51.026;5.468;2022-12-18T05:55:42;101714.88;;;-9.82
53667;BMP280;39568;51.026;5.468;2022-12-18T05:58:11;101710.22;;;-9.88
53667;BMP280;39568;51.026;5.468;2022-12-18T06:00:41;101715.22;;;-9.92
53667;BMP280;39568;51.026;5.468;2022-12-18T06:03:08;101715.22;;;-9.92
53667;BMP280;39568;51.026;5.468;2022-12-18T06:05:36;101716.28;;;-9.93
53667;BMP280;39568;51.026;5.468;2022-12-18T06:08:04;101723.38;;;-9.90
53667;BMP280;39568;51.026;5.468;2022-12-18T06:10:30;101721.88;;;-9.91
53667;BMP280;39568;51.026;5.468;2022-12-18T06:12:57;101717.78;;;-9.92
53667;BMP280;39568;51.026;5.468;2022-12-18T06:15:25;101717.94;;;-9.88
53667;BMP280;39568;51.026;5.468;2022-12-18T06:17:52;101716.41;;;-9.89
53667;BMP280;39568;51.026;5.468;2022-12-18T06:20:19;101712.97;;;-9.94
53667;BMP280;39568;51.026;5.468;2022-12-18T06:22:45;101716.00;;;-10.00
53667;BMP280;39568;51.026;5.468;2022-12-18T06:25:12;101706.44;;;-10.00
53667;BMP280;39568;51.026;5.468;2022-12-18T06:27:39;101705.84;;;-9.97
53667;BMP280;39568;51.026;5.468;2022-12-18T06:30:07;101701.78;;;-9.98
53667;BMP280;39568;51.026;5.468;2022-12-18T06:32:35;101712.34;;;-9.91
53667;BMP280;39568;51.026;5.468;2022-12-18T06:35:02;101720.50;;;-9.88
53667;BMP280;39568;51.026;5.468;2022-12-18T06:37:30;101722.63;;;-9.91
53667;BMP280;39568;51.026;5.468;2022-12-18T06:39:57;101714.44;;;-9.93
53667;BMP280;39568;51.026;5.468;2022-12-18T06:42:23;101716.72;;;-9.91
53667;BMP280;39568;51.026;5.468;2022-12-18T06:44:50;101722.16;;;-9.93
53667;BMP280;39568;51.026;5.468;2022-12-18T06:47:17;101715.69;;;-9.99
53667;BMP280;39568;51.026;5.468;2022-12-18T06:49:45;101707.84;;;-10.02
53667;BMP280;39568;51.026;5.468;2022-12-18T06:52:12;101710.28;;;-10.06
53667;BMP280;39568;51.026;5.468;2022-12-18T06:54:39;101709.22;;;-10.05
53667;BMP280;39568;51.026;5.468;2022-12-18T06:57:06;101711.94;;;-10.01
53667;BMP280;39568;51.026;5.468;2022-12-18T06:59:33;101706.19;;;-9.98
53667;BMP280;39568;51.026;5.468;2022-12-18T07:01:59;101711.31;;;-9.98
53667;BMP280;39568;51.026;5.468;2022-12-18T07:04:28;101701.19;;;-10.03
53667;BMP280;39568;51.026;5.468;2022-12-18T07:06:56;101688.31;;;-10.03
53667;BMP280;39568;51.026;5.468;2022-12-18T07:09:23;101694.50;;;-10.04
53667;BMP280;39568;51.026;5.468;2022-12-18T07:11:49;101687.56;;;-10.04
53667;BMP280;39568;51.026;5.468;2022-12-18T07:14:16;101682.09;;;-10.02
53667;BMP280;39568;51.026;5.468;2022-12-18T07:16:42;101679.66;;;-9.99
53667;BMP280;39568;51.026;5.468;2022-12-18T07:19:09;101667.06;;;-10.00
53667;BMP280;39568;51.026;5.468;2022-12-18T07:21:36;101663.44;;;-9.99
53667;BMP280;39568;51.026;5.468;2022-12-18T07:24:05;101659.19;;;-9.95
53667;BMP280;39568;51.026;5.468;2022-12-18T07:26:32;101659.50;;;-9.97
53667;BMP280;39568;51.026;5.468;2022-12-18T07:28:58;101652.84;;;-9.89
53667;BMP280;39568;51.026;5.468;2022-12-18T07:31:26;101648.13;;;-9.87
53667;BMP280;39568;51.026;5.468;2022-12-18T07:33:53;101644.94;;;-9.63
53667;BMP280;39568;51.026;5.468;2022-12-18T07:36:20;101646.84;;;-9.52
53667;BMP280;39568;51.026;5.468;2022-12-18T07:38:47;101657.41;;;-9.44
53667;BMP280;39568;51.026;5.468;2022-12-18T07:41:16;101654.63;;;-9.39
53667;BMP280;39568;51.026;5.468;2022-12-18T07:43:44;101644.88;;;-9.34
53667;BMP280;39568;51.026;5.468;2022-12-18T07:46:12;101636.84;;;-9.32
53667;BMP280;39568;51.026;5.468;2022-12-18T07:48:39;101650.09;;;-9.22
53667;BMP280;39568;51.026;5.468;2022-12-18T07:51:07;101634.84;;;-8.94
53667;BMP280;39568;51.026;5.468;2022-12-18T07:53:35;101640.03;;;-8.49
53667;BMP280;39568;51.026;5.468;2022-12-18T07:56:03;101628.09;;;-8.05
53667;BMP280;39568;51.026;5.468;2022-12-18T07:58:32;101624.63;;;-7.57
53667;BMP280;39568;51.026;5.468;2022-12-18T08:01:03;101626.38;;;-7.05
53667;BMP280;39568;51.026;5.468;2022-12-18T08:03:30;101620.72;;;-6.63
53667;BMP280;39568;51.026;5.468;2022-12-18T08:05:59;101623.97;;;-6.51
53667;BMP280;39568;51.026;5.468;2022-12-18T08:08:25;101616.13;;;-6.54
53667;BMP280;39568;51.026;5.468;2022-12-18T08:10:52;101623.38;;;-6.60
53667;BMP280;39568;51.026;5.468;2022-12-18T08:13:19;101631.81;;;-6.63
53667;BMP280;39568;51.026;5.468;2022-12-18T08:15:55;101635.59;;;-6.76
53667;BMP280;39568;51.026;5.468;2022-12-18T08:18:22;101637.16;;;-6.87
53667;BMP280;39568;51.026;5.468;2022-12-18T08:20:48;101638.50;;;-6.78
53667;BMP280;39568;51.026;5.468;2022-12-18T08:23:15;101638.00;;;-6.52
53667;BMP280;39568;51.026;5.468;2022-12-18T08:25:42;101632.09;;;-6.17
53667;BMP280;39568;51.026;5.468;2022-12-18T08:28:09;101631.75;;;-5.81
53667;BMP280;39568;51.026;5.468;2022-12-18T08:30:36;101629.75;;;-5.30
53667;BMP280;39568;51.026;5.468;2022-12-18T08:33:04;101644.41;;;-4.73
53667;BMP280;39568;51.026;5.468;2022-12-18T08:35:34;101650.22;;;-4.30
53667;BMP280;39568;51.026;5.468;2022-12-18T08:38:01;101652.72;;;-3.81
53667;BMP280;39568;51.026;5.468;2022-12-18T08:40:28;101648.94;;;-3.50
53667;BMP280;39568;51.026;5.468;2022-12-18T08:42:54;101642.97;;;-3.54
53667;BMP280;39568;51.026;5.468;2022-12-18T08:45:38;101612.66;;;-3.36
53667;BMP280;39568;51.026;5.468;2022-12-18T08:48:06;101606.59;;;-3.03
53667;BMP280;39568;51.026;5.468;2022-12-18T08:50:33;101602.75;;;-2.65
53667;BMP280;39568;51.026;5.468;2022-12-18T08:53:00;101610.13;;;-2.06
53667;BMP280;39568;51.026;5.468;2022-12-18T08:55:27;101614.28;;;-1.83
53667;BMP280;39568;51.026;5.468;2022-12-18T08:57:54;101627.75;;;-1.43
53667;BMP280;39568;51.026;5.468;2022-12-18T09:00:20;101622.16;;;-1.06
53667;BMP280;39568;51.026;5.468;2022-12-18T09:02:47;101622.91;;;-0.91
53667;BMP280;39568;51.026;5.468;2022-12-18T09:05:15;101638.94;;;-0.93
53667;BMP280;39568;51.026;5.468;2022-12-18T09:07:42;101635.22;;;-1.34
53667;BMP280;39568;51.026;5.468;2022-12-18T09:10:09;101638.91;;;-1.56
53667;BMP280;39568;51.026;5.468;2022-12-18T09:12:35;101628.50;;;-1.49
53667;BMP280;39568;51.026;5.468;2022-12-18T09:15:02;101636.69;;;-1.47
53667;BMP280;39568;51.026;5.468;2022-12-18T09:17:29;101621.03;;;-1.61
53667;BMP280;39568;51.026;5.468;2022-12-18T09:19:56;101625.47;;;-1.83
53667;BMP280;39568;51.026;5.468;2022-12-18T09:22:24;101613.94;;;-1.71
53667;BMP280;39568;51.026;5.468;2022-12-18T09:24:50;101611.31;;;-1.68
53667;BMP280;39568;51.026;5.468;2022-12-18T09:27:17;101611.31;;;-1.78
53667;BMP280;39568;51.026;5.468;2022-12-18T09:29:44;101612.06;;;-1.81
53667;BMP280;39568;51.026;5.468;2022-12-18T09:32:10;101604.25;;;-1.64
53667;BMP280;39568;51.026;5.468;2022-12-18T09:34:37;101597.91;;;-1.52
53667;BMP280;39568;51.026;5.468;2022-12-18T09:37:04;101602.75;;;-1.36
53667;BMP280;39568;51.026;5.468;2022-12-18T09:39:32;101605.41;;;-1.15
53667;BMP280;39568;51.026;5.468;2022-12-18T09:41:59;101606.81;;;-0.86
53667;BMP280;39568;51.026;5.468;2022-12-18T09:44:27;101601.19;;;-0.63
53667;BMP280;39568;51.026;5.468;2022-12-18T09:47:04;101605.22;;;-0.48
53667;BMP280;39568;51.026;5.468;2022-12-18T09:49:36;101595.81;;;-0.31
53667;BMP280;39568;51.026;5.468;2022-12-18T09:52:09;101589.03;;;-0.18
53667;BMP280;39568;51.026;5.468;2022-12-18T09:54:40;101597.56;;;-0.07
53667;BMP280;39568;51.026;5.468;2022-12-18T09:57:13;101592.28;;;0.07
53667;BMP280;39568;51.026;5.468;2022-12-18T09:59:41;101602.69;;;0.14
53667;BMP280;39568;51.026;5.468;2022-12-18T10:02:16;101592.97;;;0.15
53667;BMP280;39568;51.026;5.468;2022-12-18T10:04:44;101606.75;;;0.22
53667;BMP280;39568;51.026;5.468;2022-12-18T10:07:15;101609.31;;;0.29
53667;BMP280;39568;51.026;5.468;2022-12-18T10:09:53;101607.78;;;0.32
53667;BMP280;39568;51.026;5.468;2022-12-18T10:12:27;101599.72;;;0.16
53667;BMP280;39568;51.026;5.468;2022-12-18T10:15:01;101585.16;;;0.08
53667;BMP280;39568;51.026;5.468;2022-12-18T10:17:37;101591.56;;;-0.01
53667;BMP280;39568;51.026;5.468;2022-12-18T10:20:11;101593.47;;;-0.05
53667;BMP280;39568;51.026;5.468;2022-12-18T10:22:46;101590.88;;;-0.12
53667;BMP280;39568;51.026;5.468;2022-12-18T10:25:22;101603.56;;;-0.10
53667;BMP280;39568;51.026;5.468;2022-12-18T10:27:53;101598.59;;;-0.67
53667;BMP280;39568;51.026;5.468;2022-12-18T10:30:23;101583.25;;;-0.68
53667;BMP280;39568;51.026;5.468;2022-12-18T10:32:50;101570.63;;;-0.80
53667;BMP280;39568;51.026;5.468;2022-12-18T10:35:20;101574.34;;;-0.81
53667;BMP280;39568;51.026;5.468;2022-12-18T10:38:01;101565.81;;;-1.00
53667;BMP280;39568;51.026;5.468;2022-12-18T10:40:30;101571.03;;;-0.96
53667;BMP280;39568;51.026;5.468;2022-12-18T10:43:05;101571.41;;;-0.90
53667;BMP280;39568;51.026;5.468;2022-12-18T10:45:32;101562.81;;;-0.87
53667;BMP280;39568;51.026;5.468;2022-12-18T10:48:00;101567.63;;;-0.86
53667;BMP280;39568;51.026;5.468;2022-12-18T10:50:29;101548.97;;;-0.81
53667;BMP280;39568;51.026;5.468;2022-12-18T10:52:59;101549.72;;;-0.80
53667;BMP280;39568;51.026;5.468;2022-12-18T10:55:31;101551.56;;;-0.77
53667;BMP280;39568;51.026;5.468;2022-12-18T10:58:13;101541.53;;;-0.82
53667;BMP280;39568;51.026;5.468;2022-12-18T11:00:42;101545.28;;;-0.90
53667;BMP280;39568;51.026;5.468;2022-12-18T11:03:29;101534.81;;;-0.90
53667;BMP280;39568;51.026;5.468;2022-12-18T11:06:05;101525.53;;;-0.99
53667;BMP280;39568;51.026;5.468;2022-12-18T11:08:32;101522.91;;;-1.09
53667;BMP280;39568;51.026;5.468;2022-12-18T11:11:00;101510.97;;;-1.03
53667;BMP280;39568;51.026;5.468;2022-12-18T11:13:29;101512.09;;;-1.04
53667;BMP280;39568;51.026;5.468;2022-12-18T11:15:56;101508.03;;;-1.16
53667;BMP280;39568;51.026;5.468;2022-12-18T11:18:26;101505.38;;;-1.05
53667;BMP280;39568;51.026;5.468;2022-12-18T11:20:55;101502.41;;;-1.07
53667;BMP280;39568;51.026;5.468;2022-12-18T11:23:23;101497.91;;;-1.00
53667;BMP280;39568;51.026;5.468;2022-12-18T11:25:55;101494.16;;;-0.95
53667;BMP280;39568;51.026;5.468;2022-12-18T11:28:34;101489.28;;;-0.89
53667;BMP280;39568;51.026;5.468;2022-12-18T11:31:15;101501.56;;;-0.79
53667;BMP280;39568;51.026;5.468;2022-12-18T11:33:46;101493.69;;;-0.72
53667;BMP280;39568;51.026;5.468;2022-12-18T11:36:14;101494.72;;;-0.56
53667;BMP280;39568;51.026;5.468;2022-12-18T11:38:43;101493.16;;;-0.46
53667;BMP280;39568;51.026;5.468;2022-12-18T11:41:16;101500.25;;;-0.43
53667;BMP280;39568;51.026;5.468;2022-12-18T11:43:52;101496.84;;;-0.36
53667;BMP280;39568;51.026;5.468;2022-12-18T11:46:26;101496.44;;;-0.24
53667;BMP280;39568;51.026;5.468;2022-12-18T11:48:59;101490.06;;;-0.23
53667;BMP280;39568;51.026;5.468;2022-12-18T11:51:32;101483.22;;;-0.07
53667;BMP280;39568;51.026;5.468;2022-12-18T11:54:00;101494.47;;;-0.10
53667;BMP280;39568;51.026;5.468;2022-12-18T11:56:32;101482.06;;;-0.02
53667;BMP280;39568;51.026;5.468;2022-12-18T11:59:08;101480.59;;;-0.07
53667;BMP280;39568;51.026;5.468;2022-12-18T12:01:43;101469.72;;;-0.02
53667;BMP280;39568;51.026;5.468;2022-12-18T12:04:30;101477.94;;;0.00
53667;BMP280;39568;51.026;5.468;2022-12-18T12:07:06;101465.25;;;-0.01
53667;BMP280;39568;51.026;5.468;2022-12-18T12:09:40;101466.34;;;0.02
53667;BMP280;39568;51.026;5.468;2022-12-18T12:12:31;101453.25;;;0.02
53667;BMP280;39568;51.026;5.468;2022-12-18T12:15:20;101440.59;;;-0.04
53667;BMP280;39568;51.026;5.468;2022-12-18T12:17:52;101441.34;;;-0.03
53667;BMP280;39568;51.026;5.468;2022-12-18T12:20:22;101434.22;;;-0.03
53667;BMP280;39568;51.026;5.468;2022-12-18T12:22:56;101444.25;;;0.06
53667;BMP280;39568;51.026;5.468;2022-12-18T12:25:33;101441.91;;;0.19
53667;BMP280;39568;51.026;5.468;2022-12-18T12:28:13;101433.31;;;0.18
53667;BMP280;39568;51.026;5.468;2022-12-18T12:30:51;101431.50;;;0.12
53667;BMP280;39568;51.026;5.468;2022-12-18T12:33:29;101419.22;;;0.05
53667;BMP280;39568;51.026;5.468;2022-12-18T12:36:07;101419.59;;;0.07
53667;BMP280;39568;51.026;5.468;2022-12-18T12:38:41;101420.44;;;-0.07
53667;BMP280;39568;51.026;5.468;2022-12-18T12:41:12;101424.88;;;-0.04
53667;BMP280;39568;51.026;5.468;2022-12-18T12:43:56;101418.09;;;0.06
53667;BMP280;39568;51.026;5.468;2022-12-18T12:46:25;101424.81;;;0.07
53667;BMP280;39568;51.026;5.468;2022-12-18T12:48:55;101412.06;;;0.09
53667;BMP280;39568;51.026;5.468;2022-12-18T12:51:25;101406.06;;;0.16
53667;BMP280;39568;51.026;5.468;2022-12-18T12:53:53;101406.06;;;0.16
53667;BMP280;39568;51.026;5.468;2022-12-18T12:56:32;101389.88;;;0.24
53667;BMP280;39568;51.026;5.468;2022-12-18T12:59:10;101388.75;;;0.25
53667;BMP280;39568;51.026;5.468;2022-12-18T13:01:49;101371.16;;;0.26
53667;BMP280;39568;51.026;5.468;2022-12-18T13:04:23;101388.31;;;0.30
53667;BMP280;39568;51.026;5.468;2022-12-18T13:06:56;101382.59;;;0.39
53667;BMP280;39568;51.026;5.468;2022-12-18T13:09:30;101379.06;;;0.53
53667;BMP280;39568;51.026;5.468;2022-12-18T13:12:02;101375.50;;;0.36
53667;BMP280;39568;51.026;5.468;2022-12-18T13:14:46;101378.03;;;0.46
53667;BMP280;39568;51.026;5.468;2022-12-18T13:17:29;101375.81;;;0.41
53667;BMP280;39568;51.026;5.468;2022-12-18T13:20:10;101377.94;;;0.54
53667;BMP280;39568;51.026;5.468;2022-12-18T13:22:38;101377.53;;;0.55
53667;BMP280;39568;51.026;5.468;2022-12-18T13:25:32;101368.59;;;0.53
53667;BMP280;39568;51.026;5.468;2022-12-18T13:28:12;101368.00;;;0.38
53667;BMP280;39568;51.026;5.468;2022-12-18T13:30:44;101370.50;;;0.48
53667;BMP280;39568;51.026;5.468;2022-12-18T13:36:32;101365.13;;;0.59
53667;BMP280;39568;51.026;5.468;2022-12-18T13:39:22;101365.53;;;0.58
53667;BMP280;39568;51.026;5.468;2022-12-18T13:41:52;101353.94;;;0.59
53667;BMP280;39568;51.026;5.468;2022-12-18T13:44:32;101361.38;;;0.60
53667;BMP280;39568;51.026;5.468;2022-12-18T13:47:01;101364.44;;;0.55
53667;BMP280;39568;51.026;5.468;2022-12-18T13:49:35;101367.47;;;0.54
53667;BMP280;39568;51.026;5.468;2022-12-18T13:52:15;101359.56;;;0.57
53667;BMP280;39568;51.026;5.468;2022-12-18T13:54:46;101371.88;;;0.60
53667;BMP280;39568;51.026;5.468;2022-12-18T13:57:26;101357.81;;;0.47
53667;BMP280;39568;51.026;5.468;2022-12-18T13:59:53;101366.09;;;0.08
53667;BMP280;39568;51.026;5.468;2022-12-18T14:02:22;101344.75;;;0.13
53667;BMP280;39568;51.026;5.468;2022-12-18T14:04:50;101349.81;;;0.31
53667;BMP280;39568;51.026;5.468;2022-12-18T14:07:20;101351.28;;;0.32
53667;BMP280;39568;51.026;5.468;2022-12-18T14:09:50;101360.50;;;0.40
53667;BMP280;39568;51.026;5.468;2022-12-18T14:12:20;101359.53;;;0.30
53667;BMP280;39568;51.026;5.468;2022-12-18T14:15:06;101354.00;;;0.21
53667;BMP280;39568;51.026;5.468;2022-12-18T14:17:36;101362.59;;;0.22